Terminal Aerodrome Forecast
Issued by NWS Quad Cities IA IL

Home | Current Version | Previous Version | Graphics & Text | Print | Product List | Glossary On
Versions: 1 2 3 4 5 6 7 8 9 10 11 12 13 14 15 16 17 18 19 20 21 22 23 24 25 26 27 28 29 30
561
FTUS43 KDVN 242338
TAFMLI
TAF
KMLI 242338Z 2500/2524 09006KT 6SM BR FEW060
     FM250200 12006KT 5SM BR SCT250
     FM250800 13006KT 2SM BR SCT004
     FM251400 18006KT 4SM BR BKN050 PROB30 2518/2521 6SM SHRA BR
      BKN040=

USA.gov is the U.S. government's official web portal to all federal, state and local government web resources and services.